createdAt,value
2019-05-30T00:00:37.085Z,73.00
2019-05-30T00:02:43.753Z,73.34
2019-05-30T00:04:50.306Z,72.92
2019-05-30T00:06:56.991Z,73.38
2019-05-30T00:09:07.872Z,73.28
2019-05-30T00:11:14.437Z,73.24
2019-05-30T00:13:21.141Z,73.45
2019-05-30T00:15:27.713Z,73.71
2019-05-30T00:17:34.198Z,73.79
2019-05-30T00:19:40.668Z,73.82
2019-05-30T00:21:47.156Z,73.65
2019-05-30T00:23:53.540Z,73.72
2019-05-30T00:26:01.276Z,73.64
2019-05-30T00:28:08.864Z,74.03
2019-05-30T00:30:24.486Z,74.15
2019-05-30T00:32:25.343Z,74.17
2019-05-30T00:34:31.951Z,74.29
2019-05-30T00:36:38.597Z,74.57
2019-05-30T00:38:46.133Z,74.93
2019-05-30T00:40:52.670Z,74.80
2019-05-30T00:43:00.193Z,75.08
2019-05-30T00:45:19.806Z,75.33
2019-05-30T00:47:16.436Z,75.40
2019-05-30T00:49:22.919Z,75.90
2019-05-30T00:51:29.393Z,75.95
2019-05-30T00:53:35.920Z,75.76
2019-05-30T00:55:42.398Z,76.04
2019-05-30T00:57:49.989Z,76.60
2019-05-30T00:59:56.819Z,76.57
2019-05-30T01:02:03.403Z,77.00
2019-05-30T01:04:09.927Z,77.11
2019-05-30T01:06:16.478Z,77.46
2019-05-30T01:08:22.930Z,77.77
2019-05-30T01:10:29.540Z,77.89
2019-05-30T01:12:36.106Z,78.01
2019-05-30T01:14:42.855Z,78.23
2019-05-30T01:16:49.294Z,78.52
2019-05-30T01:18:56.925Z,78.67
2019-05-30T01:21:03.894Z,79.13
2019-05-30T01:23:10.382Z,79.30
2019-05-30T01:25:17.120Z,79.40
2019-05-30T01:27:23.516Z,79.60
2019-05-30T01:29:29.900Z,79.75
2019-05-30T01:31:36.458Z,80.00
2019-05-30T01:33:42.996Z,80.28
2019-05-30T01:35:49.479Z,80.48
2019-05-30T01:37:55.875Z,80.72
2019-05-30T01:40:02.353Z,80.97
2019-05-30T01:42:09.980Z,81.34
2019-05-30T01:44:16.452Z,81.68
2019-05-30T01:46:22.906Z,81.54
2019-05-30T01:48:29.366Z,81.51
2019-05-30T01:50:35.918Z,81.64
2019-05-30T01:52:42.437Z,81.85
2019-05-30T01:54:49.985Z,81.90
2019-05-30T01:56:56.384Z,82.16
2019-05-30T01:59:02.922Z,82.06
2019-05-30T02:01:22.364Z,82.16
2019-05-30T02:03:17.680Z,82.38
2019-05-30T02:05:25.267Z,82.70
2019-05-30T02:07:31.757Z,82.95
2019-05-30T02:09:38.345Z,83.10
2019-05-30T02:11:44.869Z,83.31
2019-05-30T02:13:51.277Z,83.37
2019-05-30T02:15:57.729Z,83.37
2019-05-30T02:18:05.617Z,83.50
2019-05-30T02:20:12.971Z,83.69
2019-05-30T02:22:19.414Z,83.78
2019-05-30T02:24:25.835Z,83.87
2019-05-30T02:26:32.228Z,83.98
2019-05-30T02:28:38.724Z,84.13
2019-05-30T02:30:45.101Z,84.15
2019-05-30T02:32:51.550Z,84.15
2019-05-30T02:34:58.007Z,84.21
2019-05-30T02:37:06.094Z,84.15
2019-05-30T02:39:12.942Z,84.08
2019-05-30T02:41:19.704Z,84.08
2019-05-30T02:43:26.217Z,84.21
2019-05-30T02:45:32.773Z,84.21
2019-05-30T02:47:39.178Z,84.14
2019-05-30T02:49:45.683Z,84.08
2019-05-30T02:51:52.310Z,84.00
2019-05-30T02:53:58.863Z,84.07
2019-05-30T02:56:05.998Z,84.19
2019-05-30T02:58:14.018Z,83.94
2019-05-30T03:00:25.088Z,83.81
2019-05-30T03:02:31.561Z,83.63
2019-05-30T03:04:38.005Z,83.49
2019-05-30T03:06:44.827Z,83.24
2019-05-30T03:08:51.366Z,83.15
2019-05-30T03:10:57.953Z,83.05
2019-05-30T03:13:06.299Z,82.70
2019-05-30T03:15:15.517Z,82.56
2019-05-30T03:17:22.607Z,81.86
2019-05-30T03:19:29.159Z,81.75
2019-05-30T03:21:35.687Z,81.53
2019-05-30T03:23:42.292Z,81.36
2019-05-30T03:25:48.882Z,81.32
2019-05-30T03:27:55.424Z,80.96
2019-05-30T03:30:05.102Z,80.80
2019-05-30T03:32:51.423Z,80.61
2019-05-30T03:34:27.588Z,80.43
2019-05-30T03:36:31.365Z,79.96
2019-05-30T03:38:36.489Z,80.19
2019-05-30T03:40:43.194Z,79.71
2019-05-30T03:42:49.987Z,79.05
2019-05-30T03:44:56.518Z,78.80
2019-05-30T03:47:08.631Z,78.66
2019-05-30T03:49:19.787Z,78.33
2019-05-30T03:51:28.786Z,78.52
2019-05-30T03:53:35.827Z,77.56
2019-05-30T03:55:46.818Z,77.40
2019-05-30T03:58:10.028Z,77.18
2019-05-30T04:00:42.434Z,76.60
2019-05-30T04:02:59.043Z,73.47
2019-05-30T04:05:14.197Z,67.47
2019-05-30T04:07:24.339Z,63.90
2019-05-30T04:09:34.295Z,60.31
2019-05-30T04:12:03.129Z,57.03
2019-05-30T04:14:15.680Z,52.64
2019-05-30T04:16:22.039Z,50.69
2019-05-30T04:18:28.504Z,49.34
2019-05-30T04:20:37.224Z,48.78
2019-05-30T04:22:43.627Z,46.23
2019-05-30T04:24:50.626Z,44.30
2019-05-30T04:26:57.040Z,42.57
2019-05-30T04:29:03.574Z,41.74
2019-05-30T04:31:10.143Z,39.64
2019-05-30T04:33:29.106Z,39.73
2019-05-30T04:35:24.856Z,38.90
2019-05-30T04:37:31.311Z,39.09
2019-05-30T04:39:37.784Z,39.00
2019-05-30T04:41:44.365Z,38.13
2019-05-30T04:43:50.796Z,37.94
2019-05-30T04:45:57.190Z,38.17
2019-05-30T04:48:03.728Z,38.96
2019-05-30T04:50:12.098Z,38.61
2019-05-30T04:52:23.990Z,38.42
2019-05-30T04:54:26.869Z,38.34
2019-05-30T04:56:33.271Z,37.12
2019-05-30T04:58:42.340Z,36.24
2019-05-30T05:00:48.058Z,34.84
2019-05-30T05:02:54.449Z,34.04
2019-05-30T05:05:00.865Z,33.58
2019-05-30T05:07:07.470Z,33.06
2019-05-30T05:09:14.074Z,32.13
2019-05-30T05:11:24.931Z,32.43
2019-05-30T05:13:29.379Z,31.18
2019-05-30T05:15:35.829Z,31.08
2019-05-30T05:17:42.333Z,31.67
2019-05-30T05:19:48.785Z,33.44
2019-05-30T05:21:55.200Z,32.91
2019-05-30T05:24:01.991Z,31.86
2019-05-30T05:26:08.436Z,31.54
2019-05-30T05:28:15.783Z,32.34
2019-05-30T05:30:22.799Z,32.28
2019-05-30T05:32:29.228Z,31.07
2019-05-30T05:34:35.694Z,29.90
2019-05-30T05:36:42.080Z,29.59
2019-05-30T05:38:48.576Z,30.96
2019-05-30T05:40:55.110Z,30.88
2019-05-30T05:43:01.574Z,30.53
2019-05-30T05:45:09.707Z,29.59
2019-05-30T05:47:18.488Z,30.04
2019-05-30T05:49:25.531Z,30.04
2019-05-30T05:51:31.797Z,29.68
2019-05-30T05:53:38.254Z,28.92
2019-05-30T05:55:44.754Z,28.74
2019-05-30T05:57:51.278Z,28.56
2019-05-30T05:59:57.770Z,28.30
2019-05-30T06:02:04.251Z,28.50
2019-05-30T06:04:13.546Z,28.07
2019-05-30T06:06:19.260Z,26.89
2019-05-30T06:08:25.961Z,26.62
2019-05-30T06:10:32.457Z,26.39
2019-05-30T06:12:38.947Z,26.19
2019-05-30T06:14:45.379Z,26.09
2019-05-30T06:16:53.706Z,25.76
2019-05-30T06:18:59.896Z,25.48
2019-05-30T06:21:06.677Z,24.62
2019-05-30T06:23:13.159Z,24.38
2019-05-30T06:25:24.016Z,23.88
2019-05-30T06:27:28.141Z,23.75
2019-05-30T06:29:34.611Z,24.05
2019-05-30T06:31:41.177Z,23.37
2019-05-30T06:33:47.656Z,23.78
2019-05-30T06:35:54.125Z,22.60
2019-05-30T06:38:00.519Z,23.02
2019-05-30T06:40:08.806Z,23.65
2019-05-30T06:42:15.381Z,22.28
2019-05-30T06:44:21.939Z,23.07
2019-05-30T06:46:28.455Z,23.80
2019-05-30T06:48:35.068Z,22.71
2019-05-30T06:50:41.539Z,21.58
2019-05-30T06:52:48.019Z,20.52
2019-05-30T06:54:54.502Z,19.92
2019-05-30T06:57:01.049Z,19.64
2019-05-30T06:59:07.760Z,19.38
2019-05-30T07:01:14.232Z,19.52
2019-05-30T07:03:22.034Z,19.75
2019-05-30T07:05:30.583Z,20.50
2019-05-30T07:07:37.286Z,21.73
2019-05-30T07:09:44.314Z,22.01
2019-05-30T07:11:50.856Z,22.03
2019-05-30T07:13:57.406Z,21.94
2019-05-30T07:16:03.885Z,21.48
2019-05-30T07:18:10.599Z,21.26
2019-05-30T07:20:19.131Z,20.56
2019-05-30T07:22:25.731Z,20.30
2019-05-30T07:24:32.281Z,20.91
2019-05-30T07:26:38.709Z,21.04
2019-05-30T07:28:45.142Z,20.68
2019-05-30T07:30:51.622Z,21.79
2019-05-30T07:32:58.024Z,22.29
2019-05-30T07:35:07.545Z,21.92
2019-05-30T07:37:14.283Z,21.28
2019-05-30T07:39:20.814Z,20.38
2019-05-30T07:41:27.568Z,20.08
2019-05-30T07:43:35.357Z,20.64
2019-05-30T07:45:45.610Z,20.05
2019-05-30T07:47:50.065Z,20.48
2019-05-30T07:49:56.520Z,20.63
2019-05-30T07:52:02.957Z,21.30
2019-05-30T07:54:09.554Z,21.42
2019-05-30T07:56:15.993Z,22.55
2019-05-30T07:58:22.541Z,22.83
2019-05-30T08:00:29.368Z,22.92
2019-05-30T08:02:35.969Z,22.97
2019-05-30T08:04:42.372Z,23.48
2019-05-30T08:06:48.783Z,22.88
2019-05-30T08:08:55.312Z,24.36
2019-05-30T08:11:09.511Z,25.95
2019-05-30T08:13:09.872Z,28.89
2019-05-30T08:15:16.891Z,31.16
2019-05-30T08:17:23.309Z,31.08
2019-05-30T08:19:29.770Z,30.94
2019-05-30T08:21:38.308Z,31.27
2019-05-30T08:23:44.786Z,30.07
2019-05-30T08:25:51.283Z,29.75
2019-05-30T08:27:57.704Z,30.56
2019-05-30T08:30:10.281Z,29.12
2019-05-30T08:32:16.886Z,27.10
2019-05-30T08:34:23.346Z,24.88
2019-05-30T08:36:30.863Z,23.77
2019-05-30T08:38:37.466Z,25.85
2019-05-30T08:40:44.000Z,29.65
2019-05-30T08:42:50.405Z,32.21
2019-05-30T08:44:56.861Z,35.26
2019-05-30T08:47:03.278Z,36.45
2019-05-30T08:49:09.717Z,37.39
2019-05-30T08:51:16.177Z,38.38
2019-05-30T08:53:22.648Z,39.65
2019-05-30T08:55:30.213Z,41.16
2019-05-30T08:57:36.840Z,40.89
2019-05-30T08:59:44.844Z,41.04
2019-05-30T09:01:53.299Z,41.67
2019-05-30T09:04:00.086Z,40.25
2019-05-30T09:06:06.620Z,40.57
2019-05-30T09:08:13.316Z,41.11
2019-05-30T09:10:19.933Z,41.29
2019-05-30T09:12:26.504Z,41.51
2019-05-30T09:14:33.105Z,41.71
2019-05-30T09:16:39.742Z,41.96
2019-05-30T09:18:47.454Z,41.96
2019-05-30T09:20:54.085Z,42.55
2019-05-30T09:23:00.473Z,42.34
2019-05-30T09:25:13.187Z,42.40
2019-05-30T09:27:19.712Z,42.85
2019-05-30T09:29:26.366Z,42.68
2019-05-30T09:31:32.920Z,42.36
2019-05-30T09:33:40.840Z,41.72
2019-05-30T09:35:47.506Z,41.94
2019-05-30T09:37:54.286Z,41.81
2019-05-30T09:40:00.940Z,42.22
2019-05-30T09:42:08.603Z,41.27
2019-05-30T09:44:15.096Z,41.26
2019-05-30T09:46:23.299Z,41.40
2019-05-30T09:48:30.411Z,42.71
2019-05-30T09:50:36.961Z,41.68
2019-05-30T09:52:44.021Z,42.23
2019-05-30T09:54:52.600Z,43.04
2019-05-30T09:56:59.148Z,43.19
2019-05-30T09:59:05.853Z,42.83
2019-05-30T10:01:12.517Z,43.25
2019-05-30T10:03:19.154Z,42.81
2019-05-30T10:05:26.559Z,42.36
2019-05-30T10:07:33.177Z,42.69
2019-05-30T10:09:39.656Z,42.28
2019-05-30T10:11:47.202Z,41.36
2019-05-30T10:13:53.989Z,40.43
2019-05-30T10:16:00.455Z,41.53
2019-05-30T10:18:07.064Z,41.29
2019-05-30T10:20:14.572Z,40.93
2019-05-30T10:22:21.018Z,41.44
2019-05-30T10:24:28.328Z,41.47
2019-05-30T10:26:34.828Z,41.97
2019-05-30T10:28:41.357Z,41.33
2019-05-30T10:30:53.414Z,41.60
2019-05-30T10:32:56.140Z,42.13
2019-05-30T10:35:02.796Z,43.00
2019-05-30T10:37:09.341Z,40.99
2019-05-30T10:39:15.807Z,41.79
2019-05-30T10:41:22.277Z,42.73
2019-05-30T10:43:29.684Z,41.47
2019-05-30T10:45:38.636Z,39.93
2019-05-30T10:47:45.791Z,40.32
2019-05-30T10:49:53.536Z,41.37
2019-05-30T10:52:00.274Z,40.76
2019-05-30T10:54:06.824Z,41.77
2019-05-30T10:56:13.308Z,41.68
2019-05-30T10:58:19.953Z,40.92
2019-05-30T11:00:47.266Z,40.58
2019-05-30T11:02:55.000Z,40.50
2019-05-30T11:05:01.685Z,40.89
2019-05-30T11:07:33.869Z,41.28
2019-05-30T11:09:48.703Z,40.28
2019-05-30T11:11:55.351Z,39.48
2019-05-30T11:14:01.942Z,39.49
2019-05-30T11:16:08.561Z,39.68
2019-05-30T11:18:15.247Z,39.58
2019-05-30T11:20:22.678Z,40.33
2019-05-30T11:22:29.360Z,38.13
2019-05-30T11:24:36.030Z,38.74
2019-05-30T11:26:42.571Z,39.07
2019-05-30T11:28:50.443Z,39.86
2019-05-30T11:30:57.158Z,39.14
2019-05-30T11:33:03.699Z,36.54
2019-05-30T11:35:10.537Z,38.09
2019-05-30T11:37:18.754Z,37.48
2019-05-30T11:39:25.160Z,36.72
2019-05-30T11:41:31.596Z,36.37
2019-05-30T11:43:37.995Z,37.36
2019-05-30T11:45:44.564Z,36.88
2019-05-30T11:47:51.748Z,36.74
2019-05-30T11:50:00.357Z,36.71
2019-05-30T11:52:08.266Z,36.75
2019-05-30T11:54:14.677Z,37.03
2019-05-30T11:56:21.164Z,36.63
2019-05-30T11:58:27.637Z,35.99
2019-05-30T12:00:34.438Z,35.69
2019-05-30T12:02:40.839Z,36.04
2019-05-30T12:04:47.353Z,35.79
2019-05-30T12:06:54.677Z,32.89
2019-05-30T12:09:01.349Z,32.65
2019-05-30T12:11:09.741Z,32.39
2019-05-30T12:13:16.140Z,33.11
2019-05-30T12:15:24.254Z,33.73
2019-05-30T12:17:30.779Z,32.98
2019-05-30T12:19:38.392Z,31.90
2019-05-30T12:21:44.876Z,33.74
2019-05-30T12:23:54.280Z,33.52
2019-05-30T12:26:00.710Z,33.19
2019-05-30T12:28:07.872Z,33.45
2019-05-30T12:30:15.767Z,33.05
2019-05-30T12:32:22.156Z,33.23
2019-05-30T12:34:28.545Z,33.33
2019-05-30T12:36:35.087Z,32.18
2019-05-30T12:38:41.547Z,32.47
2019-05-30T12:40:48.022Z,32.83
2019-05-30T12:42:57.645Z,31.75
2019-05-30T12:45:07.038Z,31.72
2019-05-30T12:47:12.153Z,32.31
2019-05-30T12:49:18.627Z,31.66
2019-05-30T12:51:25.161Z,31.87
2019-05-30T12:53:31.575Z,31.64
2019-05-30T12:55:38.174Z,32.35
2019-05-30T12:57:44.770Z,32.64
2019-05-30T12:59:51.310Z,33.42
2019-05-30T13:01:58.958Z,32.96
2019-05-30T13:04:07.360Z,33.03
2019-05-30T13:06:14.082Z,32.19
2019-05-30T13:08:21.961Z,34.23
2019-05-30T13:10:28.962Z,32.69
2019-05-30T13:12:35.625Z,32.07
2019-05-30T13:14:42.090Z,31.64
2019-05-30T13:16:48.681Z,31.67
2019-05-30T13:18:55.910Z,31.30
2019-05-30T13:21:02.573Z,32.81
2019-05-30T13:23:09.205Z,33.39
2019-05-30T13:25:18.251Z,34.14
2019-05-30T13:27:24.864Z,33.69
2019-05-30T13:29:31.334Z,34.05
2019-05-30T13:31:37.836Z,33.58
2019-05-30T13:33:44.324Z,33.53
2019-05-30T13:35:50.807Z,33.37
2019-05-30T13:37:57.567Z,31.89
2019-05-30T13:40:23.608Z,32.57
2019-05-30T13:42:16.770Z,32.52
2019-05-30T13:44:23.237Z,31.34
2019-05-30T13:46:29.734Z,31.26
2019-05-30T13:48:36.190Z,31.26
2019-05-30T13:50:43.481Z,32.27
2019-05-30T13:52:50.090Z,31.91
2019-05-30T13:54:56.556Z,30.78
2019-05-30T13:57:05.808Z,30.47
2019-05-30T13:59:12.606Z,28.92
2019-05-30T14:01:19.223Z,28.81
2019-05-30T14:03:25.758Z,28.26
2019-05-30T14:05:32.365Z,28.37
2019-05-30T14:07:38.977Z,28.47
2019-05-30T14:09:45.468Z,27.87
2019-05-30T14:11:51.878Z,27.77
2019-05-30T14:13:58.407Z,27.68
2019-05-30T14:16:04.948Z,27.67
2019-05-30T14:18:11.432Z,27.15
2019-05-30T14:20:19.345Z,27.17
2019-05-30T14:22:25.931Z,27.14
2019-05-30T14:24:32.476Z,26.27
2019-05-30T14:26:39.012Z,26.31
2019-05-30T14:28:45.592Z,27.18
2019-05-30T14:30:52.095Z,27.36
2019-05-30T14:32:58.725Z,26.54
2019-05-30T14:35:08.465Z,26.39
2019-05-30T14:37:15.112Z,26.82
2019-05-30T14:39:21.796Z,27.23
2019-05-30T14:41:28.230Z,27.38
2019-05-30T14:43:34.680Z,25.78
2019-05-30T14:45:41.223Z,25.93
2019-05-30T14:47:48.602Z,26.34
2019-05-30T14:49:54.994Z,26.86
2019-05-30T14:52:02.698Z,26.82
2019-05-30T14:54:09.143Z,26.74
2019-05-30T14:56:15.610Z,26.42
2019-05-30T14:58:22.080Z,27.09
2019-05-30T15:00:28.620Z,27.86
2019-05-30T15:02:35.093Z,28.13
2019-05-30T15:04:41.591Z,28.19
2019-05-30T15:06:48.048Z,28.19
2019-05-30T15:08:54.695Z,28.27
2019-05-30T15:11:01.200Z,28.61
2019-05-30T15:13:07.617Z,28.92
2019-05-30T15:15:18.457Z,29.70
2019-05-30T15:17:24.666Z,29.62
2019-05-30T15:19:32.660Z,29.16
2019-05-30T15:21:39.152Z,29.01
2019-05-30T15:23:45.608Z,29.38
2019-05-30T15:25:52.251Z,29.68
2019-05-30T15:27:58.651Z,30.50
2019-05-30T15:30:08.405Z,31.36
2019-05-30T15:32:15.089Z,31.82
2019-05-30T15:34:21.616Z,32.19
2019-05-30T15:36:28.162Z,31.15
2019-05-30T15:38:34.636Z,31.81
2019-05-30T15:40:41.133Z,31.89
2019-05-30T15:42:47.744Z,31.93
2019-05-30T15:44:54.206Z,32.07
2019-05-30T15:47:00.631Z,32.53
2019-05-30T15:49:08.083Z,32.10
2019-05-30T15:51:14.876Z,32.20
2019-05-30T15:53:21.490Z,32.22
2019-05-30T15:55:28.009Z,32.33
2019-05-30T15:57:34.426Z,32.81
2019-05-30T15:59:40.822Z,32.67
2019-05-30T16:01:47.266Z,32.92
2019-05-30T16:03:53.803Z,32.92
2019-05-30T16:06:00.272Z,33.07
2019-05-30T16:08:06.868Z,32.07
2019-05-30T16:10:14.873Z,32.03
2019-05-30T16:12:21.511Z,32.05
2019-05-30T16:14:29.303Z,32.72
2019-05-30T16:16:40.203Z,32.98
2019-05-30T16:18:43.800Z,33.39
2019-05-30T16:20:50.293Z,33.10
2019-05-30T16:22:56.893Z,33.57
2019-05-30T16:25:04.351Z,33.65
2019-05-30T16:27:10.921Z,33.55
2019-05-30T16:29:17.694Z,33.88
2019-05-30T16:31:24.393Z,34.00
2019-05-30T16:33:30.811Z,34.00
2019-05-30T16:35:37.486Z,33.85
2019-05-30T16:37:43.937Z,33.78
2019-05-30T16:40:04.527Z,33.98
2019-05-30T16:41:58.512Z,34.21
2019-05-30T16:44:05.054Z,35.40
2019-05-30T16:46:11.594Z,35.04
2019-05-30T16:48:18.386Z,35.98
2019-05-30T16:50:27.051Z,36.69
2019-05-30T16:52:33.590Z,36.95
2019-05-30T16:54:40.140Z,37.62
2019-05-30T16:56:46.844Z,37.60
2019-05-30T16:58:54.957Z,37.51
2019-05-30T17:01:01.453Z,37.72
2019-05-30T17:03:08.091Z,37.47
2019-05-30T17:05:15.832Z,38.53
2019-05-30T17:07:23.416Z,39.45
2019-05-30T17:09:29.928Z,39.89
2019-05-30T17:11:36.599Z,40.42
2019-05-30T17:13:43.072Z,40.14
2019-05-30T17:15:49.536Z,40.35
2019-05-30T17:17:56.022Z,40.55
2019-05-30T17:20:02.499Z,40.84
2019-05-30T17:22:09.000Z,41.07
2019-05-30T17:24:16.871Z,41.33
2019-05-30T17:26:27.408Z,41.63
2019-05-30T17:28:33.292Z,41.98
2019-05-30T17:30:39.760Z,42.02
2019-05-30T17:32:46.224Z,42.59
2019-05-30T17:34:52.729Z,43.09
2019-05-30T17:36:59.189Z,43.68
2019-05-30T17:39:09.110Z,44.04
2019-05-30T17:41:15.567Z,44.08
2019-05-30T17:43:22.938Z,44.24
2019-05-30T17:45:30.670Z,44.46
2019-05-30T17:47:37.145Z,44.68
2019-05-30T17:49:43.603Z,44.93
2019-05-30T17:51:50.114Z,45.34
2019-05-30T17:53:56.497Z,45.90
2019-05-30T17:56:02.964Z,45.88
2019-05-30T17:58:10.419Z,46.26
2019-05-30T18:00:18.000Z,46.57
2019-05-30T18:02:24.486Z,46.71
2019-05-30T18:04:31.133Z,47.36
2019-05-30T18:06:37.593Z,47.62
2019-05-30T18:08:43.990Z,47.78
2019-05-30T18:10:53.686Z,47.97
2019-05-30T18:12:58.638Z,48.01
2019-05-30T18:15:09.449Z,48.03
2019-05-30T18:17:15.925Z,48.64
2019-05-30T18:19:25.185Z,48.90
2019-05-30T18:21:31.907Z,49.18
2019-05-30T18:23:38.334Z,49.42
2019-05-30T18:25:44.837Z,49.37
2019-05-30T18:27:51.241Z,49.97
2019-05-30T18:29:57.705Z,49.78
2019-05-30T18:32:04.175Z,50.15
2019-05-30T18:34:10.944Z,50.90
2019-05-30T18:36:18.451Z,50.76
2019-05-30T18:38:26.376Z,50.95
2019-05-30T18:40:37.243Z,51.33
2019-05-30T18:42:43.759Z,51.54
2019-05-30T18:44:50.324Z,51.63
2019-05-30T18:46:56.902Z,52.07
2019-05-30T18:49:03.482Z,52.13
2019-05-30T18:51:09.943Z,52.59
2019-05-30T18:53:16.392Z,54.76
2019-05-30T18:55:22.865Z,55.61
2019-05-30T18:57:29.299Z,55.72
2019-05-30T18:59:37.287Z,56.24
2019-05-30T19:01:44.224Z,56.72
2019-05-30T19:03:51.622Z,56.74
2019-05-30T19:05:58.095Z,57.14
2019-05-30T19:08:06.089Z,57.53
2019-05-30T19:10:13.689Z,57.67
2019-05-30T19:12:20.118Z,58.26
2019-05-30T19:14:29.735Z,58.64
2019-05-30T19:16:34.749Z,58.68
2019-05-30T19:18:41.385Z,58.80
2019-05-30T19:20:47.980Z,59.16
2019-05-30T19:22:54.429Z,59.02
2019-05-30T19:25:00.916Z,59.44
2019-05-30T19:27:07.459Z,59.70
2019-05-30T19:29:14.114Z,60.21
2019-05-30T19:31:20.850Z,60.21
2019-05-30T19:33:28.730Z,60.17
2019-05-30T19:35:35.479Z,60.32
2019-05-30T19:37:42.035Z,60.50
2019-05-30T19:39:48.513Z,60.37
2019-05-30T19:41:57.407Z,60.67
2019-05-30T19:44:03.248Z,60.74
2019-05-30T19:46:13.195Z,60.87
2019-05-30T19:48:18.886Z,61.02
2019-05-30T19:50:25.427Z,61.27
2019-05-30T19:52:32.624Z,61.62
2019-05-30T19:54:40.212Z,61.83
2019-05-30T19:56:46.686Z,62.27
2019-05-30T19:58:54.067Z,62.29
2019-05-30T20:01:00.513Z,62.59
2019-05-30T20:03:07.180Z,62.99
2019-05-30T20:05:14.012Z,63.51
2019-05-30T20:07:20.547Z,63.38
2019-05-30T20:09:27.099Z,63.50
2019-05-30T20:11:33.568Z,63.66
2019-05-30T20:13:41.298Z,63.78
2019-05-30T20:15:48.035Z,63.95
2019-05-30T20:17:54.489Z,64.19
2019-05-30T20:20:00.971Z,64.59
2019-05-30T20:22:08.770Z,64.95
2019-05-30T20:24:15.332Z,65.38
2019-05-30T20:26:21.856Z,65.29
2019-05-30T20:28:28.327Z,65.60
2019-05-30T20:30:34.972Z,65.90
2019-05-30T20:32:41.906Z,66.24
2019-05-30T20:34:49.727Z,66.29
2019-05-30T20:36:56.628Z,66.73
2019-05-30T20:39:03.551Z,67.30
2019-05-30T20:41:10.105Z,67.35
2019-05-30T20:43:17.484Z,67.39
2019-05-30T20:45:24.801Z,68.19
2019-05-30T20:47:31.377Z,67.74
2019-05-30T20:49:39.081Z,67.85
2019-05-30T20:51:45.643Z,67.77
2019-05-30T20:53:54.749Z,67.36
2019-05-30T20:56:00.637Z,67.42
2019-05-30T20:58:07.119Z,67.97
2019-05-30T21:00:18.159Z,68.39
2019-05-30T21:02:28.980Z,68.87
2019-05-30T21:04:34.652Z,68.85
2019-05-30T21:06:43.023Z,69.30
2019-05-30T21:08:51.736Z,69.47
2019-05-30T21:11:03.213Z,69.73
2019-05-30T21:13:11.230Z,70.04
2019-05-30T21:15:18.178Z,70.63
2019-05-30T21:17:26.864Z,71.30
2019-05-30T21:19:33.437Z,71.73
2019-05-30T21:21:40.229Z,72.92
2019-05-30T21:23:46.917Z,73.33
2019-05-30T21:25:54.852Z,74.05
2019-05-30T21:28:01.307Z,74.45
2019-05-30T21:30:10.486Z,74.61
2019-05-30T21:32:18.065Z,74.87
2019-05-30T21:34:24.592Z,75.04
2019-05-30T21:36:31.070Z,75.28
2019-05-30T21:38:37.864Z,75.28
2019-05-30T21:40:44.613Z,75.41
2019-05-30T21:43:04.651Z,75.59
2019-05-30T21:44:59.361Z,75.04
2019-05-30T21:47:10.221Z,75.01
2019-05-30T21:49:16.770Z,75.81
2019-05-30T21:51:23.314Z,75.79
2019-05-30T21:53:31.026Z,75.84
2019-05-30T21:55:37.512Z,75.53
2019-05-30T21:57:44.080Z,75.10
2019-05-30T21:59:50.841Z,74.28
2019-05-30T22:01:57.811Z,74.44
2019-05-30T22:04:05.400Z,73.84
2019-05-30T22:06:11.971Z,72.97
2019-05-30T22:08:18.515Z,72.38
2019-05-30T22:10:26.319Z,72.24
2019-05-30T22:12:32.895Z,72.75
2019-05-30T22:14:39.354Z,73.29
2019-05-30T22:16:46.035Z,72.85
2019-05-30T22:18:52.664Z,72.33
2019-05-30T22:21:01.064Z,71.62
2019-05-30T22:23:10.779Z,71.05
2019-05-30T22:25:16.027Z,70.77
2019-05-30T22:27:22.555Z,70.71
2019-05-30T22:29:29.052Z,71.05
2019-05-30T22:31:35.793Z,71.21
2019-05-30T22:33:42.667Z,71.40
2019-05-30T22:35:49.351Z,71.59
2019-05-30T22:37:55.765Z,71.63
2019-05-30T22:40:02.346Z,71.70
2019-05-30T22:42:08.927Z,71.98
2019-05-30T22:44:15.343Z,72.08
2019-05-30T22:46:21.887Z,71.73
2019-05-30T22:48:28.497Z,71.73
2019-05-30T22:50:36.112Z,71.54
2019-05-30T22:52:42.713Z,71.54
2019-05-30T22:54:49.208Z,71.24
2019-05-30T22:56:57.015Z,70.99
2019-05-30T22:59:03.726Z,70.95
2019-05-30T23:01:10.157Z,70.21
2019-05-30T23:03:16.661Z,69.94
2019-05-30T23:05:24.313Z,69.41
2019-05-30T23:07:30.801Z,69.61
2019-05-30T23:09:37.348Z,68.56
2019-05-30T23:11:43.954Z,69.15
2019-05-30T23:13:50.531Z,68.12
2019-05-30T23:15:56.998Z,68.34
2019-05-30T23:18:03.533Z,67.99
2019-05-30T23:20:10.776Z,68.72
2019-05-30T23:22:17.314Z,68.34
2019-05-30T23:24:23.878Z,68.46
2019-05-30T23:26:30.556Z,67.12
2019-05-30T23:28:37.117Z,69.25
2019-05-30T23:30:43.695Z,70.01
2019-05-30T23:32:50.520Z,70.35
2019-05-30T23:34:58.674Z,70.05
2019-05-30T23:37:05.371Z,69.93
2019-05-30T23:39:11.807Z,69.47
2019-05-30T23:41:18.280Z,69.50
2019-05-30T23:43:24.706Z,69.39
2019-05-30T23:45:31.255Z,69.22
2019-05-30T23:47:37.805Z,69.35
2019-05-30T23:49:44.208Z,69.64
2019-05-30T23:51:51.863Z,69.96
2019-05-30T23:53:58.688Z,70.18
2019-05-30T23:56:05.239Z,70.11
2019-05-30T23:58:11.710Z,70.26
